Time;durP1;ratioP1;P1;durP2;ratioP2;P2;SDS_P1;SDS_P2;PMS_P1;PMS_P2;Temp;Humidity;BMP_temperature;BMP_pressure;BME280_temperature;BME280_humidity;BME280_pressure;Samples;Min_cycle;Max_cycle;Signal;HPM_P1;HPM_P2
2022/10/08 04:01:28;;;;;;;12.00;2.80;;;11.80;99.90;;;;;;6289513;22;20023;-81
2022/10/08 04:03:54;;;;;;;13.10;2.97;;;11.90;99.90;;;;;;6286624;22;20011;-82
2022/10/08 04:06:20;;;;;;;11.90;2.53;;;11.90;99.90;;;;;;6286602;22;20007;-77
2022/10/08 04:08:45;;;;;;;16.70;3.80;;;11.90;99.90;;;;;;6312592;22;20015;-79
2022/10/08 04:11:13;;;;;;;10.82;3.40;;;11.90;99.90;;;;;;6312692;22;20010;-79
2022/10/08 04:13:41;;;;;;;13.57;2.70;;;11.90;99.90;;;;;;6340485;22;20018;-81
2022/10/08 04:16:13;;;;;;;10.13;2.83;;;11.90;99.90;;;;;;6312379;22;20046;-83
2022/10/08 04:18:39;;;;;;;15.27;3.55;;;11.90;99.90;;;;;;6312484;22;20042;-82
2022/10/08 04:21:08;;;;;;;12.50;2.70;;;11.90;99.90;;;;;;6340364;22;20021;-79
2022/10/08 04:23:36;;;;;;;14.82;2.78;;;11.90;99.90;;;;;;6312228;22;20131;-78
2022/10/08 04:26:02;;;;;;;14.98;2.90;;;11.90;99.90;;;;;;6312638;22;20007;-77
2022/10/08 04:28:28;;;;;;;15.40;2.95;;;11.90;99.90;;;;;;6312121;22;20011;-81
2022/10/08 04:31:20;;;;;;;13.27;3.08;;;11.90;99.90;;;;;;6286693;22;20474;-81
2022/10/08 04:33:46;;;;;;;9.82;2.65;;;12.00;99.90;;;;;;6312209;22;20010;-76
2022/10/08 04:36:14;;;;;;;13.43;2.50;;;11.90;99.90;;;;;;6339801;22;20007;-82
2022/10/08 04:38:44;;;;;;;11.48;2.97;;;11.90;99.90;;;;;;6312192;22;20019;-78
2022/10/08 04:41:16;;;;;;;17.67;2.38;;;11.90;99.90;;;;;;6311608;22;20070;-76
2022/10/08 04:43:43;;;;;;;11.27;2.38;;;11.90;99.90;;;;;;6312732;22;20489;-77
2022/10/08 04:46:10;;;;;;;12.70;2.47;;;11.90;99.90;;;;;;6312081;22;20024;-78
2022/10/08 04:48:36;;;;;;;15.65;3.28;;;11.80;99.90;;;;;;6312122;22;20033;-80
2022/10/08 04:51:04;;;;;;;10.18;2.58;;;11.80;99.90;;;;;;6340027;22;20452;-79
2022/10/08 04:53:30;;;;;;;14.52;2.40;;;11.80;99.90;;;;;;6312372;22;20038;-80
2022/10/08 04:56:05;;;;;;;9.45;2.35;;;11.70;99.90;;;;;;6312237;22;20297;-80
2022/10/08 04:58:31;;;;;;;8.85;2.30;;;11.70;99.90;;;;;;6312822;22;20014;-79
2022/10/08 05:01:01;;;;;;;13.10;2.22;;;11.70;99.90;;;;;;6340317;22;20006;-79
2022/10/08 05:03:26;;;;;;;11.73;2.58;;;11.60;99.90;;;;;;6315516;22;20011;-80
2022/10/08 05:05:52;;;;;;;16.15;2.45;;;11.60;99.90;;;;;;6315232;22;20013;-79
2022/10/08 05:08:18;;;;;;;13.50;2.08;;;11.50;99.90;;;;;;6289746;22;20335;-79
2022/10/08 05:10:47;;;;;;;12.30;2.13;;;11.50;99.90;;;;;;6343181;22;20011;-80
2022/10/08 05:13:13;;;;;;;20.95;3.80;;;11.50;99.90;;;;;;6343815;22;20033;-83
2022/10/08 05:15:39;;;;;;;14.05;2.47;;;11.40;99.90;;;;;;6289890;22;20406;-77
2022/10/08 05:18:04;;;;;;;10.75;2.05;;;11.40;99.90;;;;;;6315870;22;20011;-82
2022/10/08 05:20:30;;;;;;;15.77;2.15;;;11.40;99.90;;;;;;6315669;22;20344;-78
2022/10/08 05:22:56;;;;;;;14.55;2.50;;;11.30;99.90;;;;;;6315804;22;20050;-80
2022/10/08 05:25:21;;;;;;;12.35;2.20;;;11.30;99.90;;;;;;6343497;22;20018;-79
2022/10/08 05:27:47;;;;;;;13.30;2.78;;;11.30;99.90;;;;;;6315518;22;20014;-83
2022/10/08 05:30:12;;;;;;;13.85;2.58;;;11.20;99.90;;;;;;6315424;22;20042;-84
2022/10/08 05:32:38;;;;;;;17.55;2.88;;;11.20;99.90;;;;;;6344107;22;20018;-81
2022/10/08 05:35:04;;;;;;;10.30;2.05;;;11.20;99.90;;;;;;6343631;22;20013;-80
2022/10/08 05:37:30;;;;;;;12.85;2.05;;;11.20;99.90;;;;;;6315564;22;20063;-81
2022/10/08 05:39:55;;;;;;;10.88;2.10;;;11.10;99.90;;;;;;6316067;22;20440;-79
2022/10/08 05:42:21;;;;;;;10.80;2.30;;;11.10;99.90;;;;;;6316157;22;20003;-80
2022/10/08 05:44:46;;;;;;;13.93;1.92;;;11.10;99.90;;;;;;6315599;22;20002;-82
2022/10/08 05:47:12;;;;;;;10.27;1.83;;;11.10;99.90;;;;;;6316109;22;20065;-77
2022/10/08 05:49:38;;;;;;;8.75;1.60;;;11.10;99.90;;;;;;6315819;22;20363;-82
2022/10/08 05:52:07;;;;;;;16.60;2.60;;;11.00;99.90;;;;;;6315761;22;20014;-81
2022/10/08 05:54:32;;;;;;;11.82;1.83;;;11.00;99.90;;;;;;6315940;22;20110;-81
2022/10/08 05:56:58;;;;;;;12.02;2.03;;;11.00;99.90;;;;;;6315456;22;20014;-77
2022/10/08 05:59:24;;;;;;;13.80;2.10;;;11.00;99.90;;;;;;6315719;22;20061;-79
2022/10/08 06:01:50;;;;;;;10.15;1.92;;;10.90;99.90;;;;;;6342378;22;20317;-76
2022/10/08 06:04:17;;;;;;;13.48;2.40;;;10.90;99.90;;;;;;6343913;22;20042;-80
2022/10/08 06:06:49;;;;;;;9.82;1.90;;;10.90;99.90;;;;;;6290841;22;20439;-80
2022/10/08 06:09:44;;;;;;;14.07;1.90;;;10.90;99.90;;;;;;6315712;22;20018;-85
2022/10/08 06:12:11;;;;;;;7.85;1.40;;;10.90;99.90;;;;;;6311858;22;20444;-77
2022/10/08 06:14:37;;;;;;;12.10;2.05;;;10.90;99.90;;;;;;6313699;22;20021;-77
2022/10/08 06:17:02;;;;;;;10.07;2.28;;;10.90;99.90;;;;;;6313423;22;20002;-80
2022/10/08 06:19:28;;;;;;;12.10;1.60;;;11.00;99.90;;;;;;6313767;22;20014;-79
2022/10/08 06:21:54;;;;;;;7.85;1.55;;;11.00;99.90;;;;;;6341314;22;20014;-79
2022/10/08 06:24:20;;;;;;;10.60;1.65;;;11.00;99.90;;;;;;6313308;22;20343;-81
2022/10/08 06:26:46;;;;;;;14.10;2.22;;;11.00;99.90;;;;;;6312912;22;20014;-83
2022/10/08 06:29:17;;;;;;;12.93;2.42;;;11.10;99.90;;;;;;6313546;22;20015;-83
2022/10/08 06:31:43;;;;;;;9.85;1.30;;;11.10;99.90;;;;;;6341368;22;20022;-82
2022/10/08 06:34:09;;;;;;;10.82;1.52;;;11.10;99.90;;;;;;6313428;22;20021;-81
2022/10/08 06:36:38;;;;;;;7.55;1.17;;;11.10;99.90;;;;;;6288804;22;20007;-82
2022/10/08 06:39:06;;;;;;;6.60;1.50;;;11.20;99.90;;;;;;6341207;22;20308;-81
2022/10/08 06:41:33;;;;;;;8.30;1.98;;;11.20;99.90;;;;;;6313598;22;20032;-80
2022/10/08 06:44:00;;;;;;;8.52;1.65;;;11.20;99.90;;;;;;6313168;22;20042;-80
2022/10/08 06:46:26;;;;;;;7.57;1.50;;;11.30;99.90;;;;;;6313666;22;20017;-78
2022/10/08 06:48:52;;;;;;;8.73;1.52;;;11.40;99.90;;;;;;6340357;22;20007;-81
2022/10/08 06:51:18;;;;;;;9.52;2.20;;;11.40;99.90;;;;;;6312783;22;20069;-80
2022/10/08 06:53:50;;;;;;;9.32;1.58;;;11.40;99.90;;;;;;6312942;22;20019;-79
2022/10/08 06:56:19;;;;;;;8.40;1.60;;;11.40;99.90;;;;;;6312985;22;20021;-81
2022/10/08 06:58:46;;;;;;;6.30;1.60;;;11.40;99.90;;;;;;6312748;22;20010;-79
2022/10/08 07:01:20;;;;;;;7.22;1.23;;;11.40;99.90;;;;;;6340527;22;20428;-76
2022/10/08 07:04:01;;;;;;;;;;;;;;;;;;;;;
2022/10/08 07:06:27;;;;;;;4.45;1.38;;;11.60;99.90;;;;;;6312477;22;20011;-82
2022/10/08 07:08:55;;;;;;;7.63;1.45;;;11.50;99.90;;;;;;6312735;22;20414;-79
2022/10/08 07:11:21;;;;;;;12.45;1.67;;;11.50;99.90;;;;;;6312344;22;20085;-77
2022/10/08 07:13:47;;;;;;;7.45;1.50;;;11.50;99.90;;;;;;6312578;22;20022;-81
2022/10/08 07:16:20;;;;;;;9.48;2.03;;;11.50;99.90;;;;;;6341121;22;20010;-80
2022/10/08 07:18:47;;;;;;;6.00;1.92;;;11.40;99.90;;;;;;6312310;22;20085;-80
2022/10/08 07:21:14;;;;;;;10.18;1.38;;;11.40;99.90;;;;;;6312352;22;20017;-80
2022/10/08 07:23:40;;;;;;;6.82;1.45;;;11.40;99.90;;;;;;6340668;22;20003;-80
2022/10/08 07:26:28;;;;;;;8.90;1.42;;;11.50;99.90;;;;;;6312549;22;20455;-78
2022/10/08 07:28:59;;;;;;;14.18;1.88;;;11.50;99.90;;;;;;6312388;22;20046;-79
2022/10/08 07:31:31;;;;;;;12.32;2.00;;;11.50;99.90;;;;;;6340365;22;20021;-78
2022/10/08 07:34:02;;;;;;;13.65;2.40;;;11.60;99.90;;;;;;6341314;22;20312;-81
2022/10/08 07:36:28;;;;;;;6.25;1.30;;;11.60;99.90;;;;;;6312384;22;20018;-80
2022/10/08 07:38:55;;;;;;;10.98;1.60;;;11.60;99.90;;;;;;6340045;22;20081;-77
2022/10/08 07:41:21;;;;;;;7.65;1.48;;;11.70;99.90;;;;;;6312214;22;20382;-78
2022/10/08 07:43:51;;;;;;;9.60;1.38;;;11.80;99.90;;;;;;6339302;22;20014;-80
2022/10/08 07:46:17;;;;;;;6.55;2.05;;;11.90;99.90;;;;;;6311955;22;20072;-76
2022/10/08 07:48:43;;;;;;;7.07;1.83;;;11.90;99.90;;;;;;6311859;22;20332;-77
2022/10/08 07:51:14;;;;;;;8.20;2.10;;;12.00;99.90;;;;;;6339372;22;20082;-77
2022/10/08 07:53:40;;;;;;;8.98;1.38;;;12.00;99.90;;;;;;6311571;22;20014;-80
2022/10/08 07:56:08;;;;;;;6.90;2.58;;;12.10;99.90;;;;;;6311768;22;20018;-83
2022/10/08 07:58:34;;;;;;;4.13;1.00;;;12.20;99.90;;;;;;6286463;22;20060;-78
2022/10/08 08:01:02;;;;;;;15.32;2.10;;;12.30;99.90;;;;;;6339859;22;20006;-77
2022/10/08 08:03:28;;;;;;;11.13;1.08;;;12.40;99.90;;;;;;6312283;22;20015;-75
2022/10/08 08:06:00;;;;;;;9.48;1.00;;;12.40;99.90;;;;;;6311927;22;20056;-76
2022/10/08 08:08:25;;;;;;;3.60;0.90;;;12.40;99.90;;;;;;6339672;22;20011;-81
2022/10/08 08:10:58;;;;;;;5.93;1.10;;;12.50;99.90;;;;;;6311159;22;20017;-79
2022/10/08 08:13:24;;;;;;;6.35;1.10;;;12.60;99.90;;;;;;6285883;22;20007;-80
2022/10/08 08:16:01;;;;;;;6.60;1.27;;;12.60;99.90;;;;;;6311520;22;20006;-80
2022/10/08 08:18:29;;;;;;;6.40;1.20;;;12.70;99.90;;;;;;6338733;22;20048;-79
2022/10/08 08:20:59;;;;;;;11.00;1.27;;;12.80;99.90;;;;;;6338746;22;20002;-78
2022/10/08 08:23:34;;;;;;;6.65;1.17;;;12.80;99.90;;;;;;6311381;22;20011;-79
2022/10/08 08:26:05;;;;;;;6.05;1.00;;;12.90;99.90;;;;;;6339527;22;20011;-79
2022/10/08 08:28:30;;;;;;;5.28;0.80;;;13.00;99.90;;;;;;6312060;22;20015;-81
2022/10/08 08:31:10;;;;;;;13.38;2.13;;;13.10;99.90;;;;;;6339884;22;20014;-76
2022/10/08 08:33:37;;;;;;;7.07;1.00;;;13.10;99.90;;;;;;6311967;22;20193;-77
2022/10/08 08:36:03;;;;;;;4.95;0.80;;;13.10;99.90;;;;;;6339677;22;20010;-80
2022/10/08 08:38:29;;;;;;;5.80;1.40;;;13.20;99.90;;;;;;6311911;22;20024;-80
2022/10/08 08:41:04;;;;;;;12.18;1.92;;;13.30;99.90;;;;;;6312118;22;20010;-80
2022/10/08 08:43:30;;;;;;;5.72;1.05;;;13.30;99.90;;;;;;6311742;22;20060;-80
2022/10/08 08:45:56;;;;;;;9.55;0.90;;;13.40;99.90;;;;;;6311065;22;20515;-78
2022/10/08 08:48:25;;;;;;;4.45;1.02;;;13.50;99.90;;;;;;6337936;22;20017;-77
2022/10/08 08:50:56;;;;;;;4.38;0.70;;;13.60;99.90;;;;;;6284029;22;20011;-82
2022/10/08 08:53:22;;;;;;;5.63;1.13;;;13.70;99.90;;;;;;6311068;22;20007;-80
2022/10/08 08:55:53;;;;;;;2.45;0.63;;;13.80;99.90;;;;;;6312084;22;20013;-78
2022/10/08 08:58:46;;;;;;;5.97;1.00;;;13.80;99.90;;;;;;6311744;22;20021;-79
2022/10/08 09:01:31;;;;;;;3.17;0.65;;;14.00;99.90;;;;;;6311612;22;20063;-78
2022/10/08 09:04:38;;;;;;;5.32;0.98;;;14.30;99.90;;;;;;6311444;22;20046;-78
2022/10/08 09:07:10;;;;;;;6.40;1.05;;;14.20;99.90;;;;;;6250617;22;20010;-79
2022/10/08 09:09:46;;;;;;;5.32;0.88;;;14.30;99.90;;;;;;6286154;22;20378;-80
2022/10/08 09:12:34;;;;;;;5.18;0.68;;;14.40;99.90;;;;;;6338529;22;20006;-79
2022/10/08 09:15:01;;;;;;;2.72;0.60;;;14.60;99.90;;;;;;6311615;22;20428;-76
2022/10/08 09:17:33;;;;;;;5.45;0.80;;;14.70;99.90;;;;;;6311661;22;20090;-81
2022/10/08 09:19:59;;;;;;;7.78;0.80;;;14.60;99.90;;;;;;6285956;22;20094;-79
2022/10/08 09:22:28;;;;;;;4.22;0.60;;;14.50;99.90;;;;;;6311493;22;20014;-78
2022/10/08 09:25:04;;;;;;;4.22;0.90;;;14.60;99.90;;;;;;6285791;22;20056;-77
2022/10/08 09:27:56;;;;;;;6.65;1.02;;;14.60;99.90;;;;;;6312074;22;20021;-77
2022/10/08 09:30:28;;;;;;;6.25;0.95;;;14.70;99.90;;;;;;6311029;22;20050;-79
2022/10/08 09:32:56;;;;;;;8.15;0.70;;;14.80;99.90;;;;;;6311159;22;20046;-79
2022/10/08 09:35:23;;;;;;;5.13;0.75;;;14.80;99.90;;;;;;6339731;22;20034;-78
2022/10/08 09:37:50;;;;;;;6.57;1.00;;;15.00;99.90;;;;;;6311521;22;20025;-76
2022/10/08 09:40:25;;;;;;;4.25;0.70;;;15.00;99.90;;;;;;6311413;22;20086;-80
2022/10/08 09:43:06;;;;;;;;;;;14.90;99.90;;;;;;6340729;22;20007;-83
2022/10/08 09:45:42;;;;;;;5.05;1.15;;;14.90;99.90;;;;;;6339987;22;20238;-78
2022/10/08 09:48:23;;;;;;;6.43;0.82;;;14.90;99.90;;;;;;6340396;22;20006;-79
2022/10/08 09:50:59;;;;;;;5.55;1.15;;;14.80;99.90;;;;;;6340749;22;20003;-81
2022/10/08 09:53:47;;;;;;;7.88;0.75;;;14.70;99.90;;;;;;6341090;22;20010;-78
2022/10/08 09:56:14;;;;;;;8.05;1.02;;;14.70;99.90;;;;;;6340530;22;20018;-77
2022/10/08 09:58:58;;;;;;;6.25;1.38;;;14.40;99.90;;;;;;6340151;22;20014;-81
2022/10/08 10:01:24;;;;;;;4.40;1.00;;;14.10;99.90;;;;;;6313290;22;20007;-81
2022/10/08 10:03:55;;;;;;;6.38;0.73;;;13.90;99.90;;;;;;6339751;22;20423;-77
2022/10/08 10:06:36;;;;;;;7.15;1.05;;;13.80;99.90;;;;;;6313398;22;20011;-77
2022/10/08 10:09:29;;;;;;;4.53;0.80;;;13.60;99.90;;;;;;6313177;22;20022;-76
2022/10/08 10:12:10;;;;;;;6.07;0.75;;;13.60;99.90;;;;;;6312940;22;20056;-78
2022/10/08 10:14:50;;;;;;;4.55;0.47;;;13.50;99.90;;;;;;6340891;22;20428;-78
2022/10/08 10:17:37;;;;;;;4.60;1.00;;;13.70;99.90;;;;;;6312116;22;20010;-81
2022/10/08 10:20:25;;;;;;;11.02;1.05;;;13.60;99.90;;;;;;6341155;22;20133;-77
2022/10/08 10:22:55;;;;;;;7.10;0.80;;;13.60;99.90;;;;;;6313179;22;20011;-81
2022/10/08 10:25:29;;;;;;;7.15;0.77;;;13.50;99.90;;;;;;6312775;22;20011;-78
2022/10/08 10:28:11;;;;;;;5.93;1.13;;;13.40;99.90;;;;;;6313332;22;20038;-79
2022/10/08 10:30:51;;;;;;;5.88;0.80;;;13.40;99.90;;;;;;6312897;22;20007;-77
2022/10/08 10:33:21;;;;;;;4.90;0.55;;;13.70;99.90;;;;;;6340583;22;20014;-81
2022/10/08 10:35:53;;;;;;;10.57;1.10;;;14.00;99.90;;;;;;6341179;22;20007;-81
2022/10/08 10:38:26;;;;;;;5.55;1.05;;;14.30;99.90;;;;;;6340724;22;20360;-77
2022/10/08 10:41:21;;;;;;;3.28;0.63;;;14.60;99.90;;;;;;6313594;22;20014;-80
2022/10/08 10:44:05;;;;;;;4.60;0.77;;;14.80;99.90;;;;;;6339846;22;20018;-77
2022/10/08 10:46:50;;;;;;;7.85;1.05;;;15.00;99.90;;;;;;6313026;22;20010;-79
2022/10/08 10:49:19;;;;;;;5.80;0.80;;;15.20;99.90;;;;;;6313422;22;20065;-75
2022/10/08 10:52:17;;;;;;;5.10;0.70;;;15.30;99.90;;;;;;6312657;22;20068;-76
2022/10/08 10:55:04;;;;;;;11.77;0.93;;;15.50;99.90;;;;;;6229346;22;20509;-76
2022/10/08 10:57:39;;;;;;;3.10;0.80;;;15.70;99.90;;;;;;6312854;22;20466;-78
2022/10/08 11:00:24;;;;;;;6.20;0.60;;;15.80;99.90;;;;;;6286937;22;20440;-75
2022/10/08 11:03:19;;;;;;;5.30;0.68;;;15.70;99.90;;;;;;6313258;22;20439;-76
2022/10/08 11:05:48;;;;;;;7.50;0.60;;;15.40;99.90;;;;;;6312659;22;20061;-75
2022/10/08 11:08:55;;;;;;;6.15;0.88;;;15.10;99.90;;;;;;6340712;22;20033;-79
2022/10/08 11:11:33;;;;;;;6.32;0.88;;;15.20;99.90;;;;;;6292504;22;20015;-79
2022/10/08 11:14:13;;;;;;;13.45;1.10;;;15.30;99.90;;;;;;6340457;22;20029;-79
2022/10/08 11:17:06;;;;;;;7.57;0.85;;;15.30;99.90;;;;;;6312608;22;20463;-77
2022/10/08 11:20:09;;;;;;;7.75;1.17;;;15.20;99.90;;;;;;6312750;22;20340;-76
2022/10/08 11:22:53;;;;;;;5.18;0.82;;;15.30;99.90;;;;;;6313220;22;20018;-80
2022/10/08 11:25:47;;;;;;;4.55;0.98;;;15.60;99.90;;;;;;6286899;22;20022;-76
2022/10/08 11:28:38;;;;;;;6.93;1.02;;;15.80;99.90;;;;;;6313206;22;20011;-80
2022/10/08 11:31:27;;;;;;;9.15;1.10;;;15.90;99.90;;;;;;6312547;22;20010;-75
2022/10/08 11:33:55;;;;;;;5.82;0.80;;;16.10;99.90;;;;;;6292766;22;20014;-79
2022/10/08 11:36:31;;;;;;;9.57;0.85;;;16.20;99.90;;;;;;6312726;22;20354;-81
2022/10/08 11:39:19;;;;;;;9.65;0.90;;;16.20;99.90;;;;;;6310630;22;20101;-81
2022/10/08 11:41:56;;;;;;;8.13;0.90;;;16.10;99.90;;;;;;6287604;22;20089;-78
2022/10/08 11:44:23;;;;;;;7.90;0.82;;;16.10;99.90;;;;;;6312067;22;20007;-83
2022/10/08 11:46:49;;;;;;;7.53;0.90;;;16.20;99.90;;;;;;6312323;22;20006;-83
2022/10/08 11:49:15;;;;;;;8.75;1.10;;;16.40;99.90;;;;;;6311124;22;20482;-77
2022/10/08 11:51:51;;;;;;;6.97;1.27;;;16.50;99.90;;;;;;6338633;22;20022;-81
2022/10/08 11:54:37;;;;;;;9.02;1.10;;;16.60;99.90;;;;;;6310984;22;20019;-83
2022/10/08 11:57:16;;;;;;;;;;;16.60;99.90;;;;;;6311815;22;20041;-82
2022/10/08 11:59:43;;;;;;;8.60;1.20;;;16.60;99.90;;;;;;6311244;22;20324;-86
2022/10/08 12:02:23;;;;;;;6.95;1.10;;;16.50;99.90;;;;;;6310993;22;20044;-79
2022/10/08 12:04:51;;;;;;;5.20;0.70;;;16.50;99.90;;;;;;6312867;22;20010;-85
2022/10/08 12:07:17;;;;;;;6.75;0.65;;;16.20;99.90;;;;;;6312642;22;20038;-81
2022/10/08 12:10:03;;;;;;;7.65;1.17;;;16.00;99.90;;;;;;6312853;22;20067;-84
2022/10/08 12:13:10;;;;;;;2.33;0.50;;;15.80;99.90;;;;;;6312344;22;20022;-82
2022/10/08 12:15:39;;;;;;;;;;;15.60;99.90;;;;;;6159774;23;20053;-79
2022/10/08 12:18:16;;;;;;;8.43;0.93;;;15.60;99.90;;;;;;6317802;22;19956;-83
2022/10/08 12:20:42;;;;;;;7.82;0.70;;;15.90;99.90;;;;;;6312574;22;20351;-80
2022/10/08 12:23:33;;;;;;;6.90;0.77;;;16.10;99.90;;;;;;6312467;22;20455;-80
2022/10/08 12:25:58;;;;;;;5.30;1.00;;;16.30;99.90;;;;;;6311861;22;20037;-82
2022/10/08 12:28:27;;;;;;;5.95;0.80;;;16.10;99.90;;;;;;6283466;22;20019;-79
2022/10/08 12:30:57;;;;;;;11.25;1.02;;;15.90;99.90;;;;;;6286147;22;20010;-80
2022/10/08 12:33:24;;;;;;;4.78;0.80;;;15.80;99.90;;;;;;6312346;22;20091;-82
2022/10/08 12:36:20;;;;;;;5.25;0.85;;;15.60;99.90;;;;;;6312267;22;20014;-79
2022/10/08 12:39:05;;;;;;;12.00;1.30;;;15.40;99.90;;;;;;6312125;22;20064;-81
2022/10/08 12:41:56;;;;;;;10.20;0.85;;;15.20;99.90;;;;;;6339991;22;20011;-81
2022/10/08 12:44:24;;;;;;;9.52;1.15;;;15.30;99.90;;;;;;6311872;22;20059;-78
2022/10/08 12:46:53;;;;;;;5.50;1.08;;;15.50;99.90;;;;;;6311830;22;20379;-82
2022/10/08 12:49:28;;;;;;;6.07;1.10;;;15.40;99.90;;;;;;6311768;22;20018;-75
2022/10/08 12:51:56;;;;;;;4.75;0.70;;;15.50;99.90;;;;;;6311660;22;20042;-82
2022/10/08 12:54:25;;;;;;;5.10;0.82;;;15.70;99.90;;;;;;6339535;22;20090;-79
2022/10/08 12:56:51;;;;;;;6.43;0.75;;;15.70;99.90;;;;;;6311501;22;20046;-81
2022/10/08 12:59:19;;;;;;;6.10;0.90;;;15.90;99.90;;;;;;6311661;22;20015;-79
2022/10/08 13:01:46;;;;;;;4.88;1.08;;;15.80;99.90;;;;;;6311929;22;20459;-81
2022/10/08 13:04:28;;;;;;;6.40;0.70;;;15.60;99.90;;;;;;6311511;22;20317;-78
2022/10/08 13:06:55;;;;;;;5.72;0.60;;;15.70;99.90;;;;;;6312249;22;20018;-78
2022/10/08 13:09:31;;;;;;;7.18;0.90;;;15.90;99.90;;;;;;6311629;22;20018;-77
2022/10/08 13:11:59;;;;;;;6.22;1.13;;;16.10;99.90;;;;;;6311259;22;20011;-81
2022/10/08 13:14:33;;;;;;;5.78;0.77;;;16.00;99.90;;;;;;6311876;22;20050;-79
2022/10/08 13:16:59;;;;;;;8.77;1.08;;;15.90;99.90;;;;;;6311515;22;20509;-80
2022/10/08 13:19:36;;;;;;;4.43;0.90;;;15.70;99.90;;;;;;6311648;22;20498;-81
2022/10/08 13:22:24;;;;;;;6.30;0.65;;;15.60;99.90;;;;;;6311498;22;20305;-80
2022/10/08 13:24:50;;;;;;;5.63;1.05;;;15.20;99.90;;;;;;6313546;22;20003;-79
2022/10/08 13:27:29;;;;;;;3.22;0.60;;;15.20;99.90;;;;;;6313506;22;20075;-82
2022/10/08 13:29:56;;;;;;;6.05;0.68;;;15.30;99.90;;;;;;6313688;22;20019;-79
2022/10/08 13:32:28;;;;;;;4.57;0.68;;;15.20;99.90;;;;;;6341312;22;20017;-77
2022/10/08 13:34:58;;;;;;;5.32;1.10;;;15.30;99.90;;;;;;6313690;22;20463;-78
2022/10/08 13:37:36;;;;;;;6.03;0.85;;;15.60;99.90;;;;;;6341679;22;20336;-78
2022/10/08 13:40:11;;;;;;;5.40;1.38;;;15.70;99.90;;;;;;6313918;22;20318;-80
2022/10/08 13:42:43;;;;;;;5.57;0.90;;;15.70;99.90;;;;;;6312501;22;20089;-79
2022/10/08 13:45:15;;;;;;;6.95;0.68;;;15.50;99.90;;;;;;6315806;22;20241;-79
2022/10/08 13:47:41;;;;;;;4.10;1.25;;;15.40;99.90;;;;;;6317664;22;20018;-79
2022/10/08 13:50:07;;;;;;;7.80;1.20;;;15.20;99.90;;;;;;6314359;22;20015;-79
2022/10/08 13:52:33;;;;;;;8.68;0.90;;;15.20;99.90;;;;;;6287139;22;20440;-78
2022/10/08 13:55:05;;;;;;;5.57;0.85;;;15.10;99.90;;;;;;6313071;22;20011;-79
2022/10/08 13:57:31;;;;;;;10.35;1.27;;;14.90;99.90;;;;;;6341074;22;20301;-78
2022/10/08 13:59:56;;;;;;;5.80;0.73;;;14.90;99.90;;;;;;6312562;22;20551;-79
2022/10/08 14:02:22;;;;;;;5.13;0.90;;;15.10;99.90;;;;;;6312256;22;20042;-76
2022/10/08 14:04:48;;;;;;;18.92;1.55;;;15.50;99.90;;;;;;6312622;22;20007;-79
2022/10/08 14:07:27;;;;;;;5.38;0.90;;;15.70;99.90;;;;;;6312733;22;20011;-78
2022/10/08 14:09:55;;;;;;;6.38;0.68;;;16.00;99.90;;;;;;6312702;22;20042;-75
2022/10/08 14:12:28;;;;;;;11.88;1.00;;;16.00;99.90;;;;;;6312966;22;20018;-79
2022/10/08 14:14:55;;;;;;;6.72;1.08;;;16.10;99.90;;;;;;6312936;22;20340;-77
2022/10/08 14:17:20;;;;;;;9.50;2.05;;;16.10;99.90;;;;;;6340415;22;20007;-76
2022/10/08 14:19:46;;;;;;;5.57;0.80;;;16.10;99.90;;;;;;6286879;22;20064;-77
2022/10/08 14:22:12;;;;;;;5.95;1.10;;;16.10;99.90;;;;;;6340311;22;20374;-76
2022/10/08 14:24:38;;;;;;;5.80;0.90;;;16.00;99.90;;;;;;6340315;22;20046;-79
2022/10/08 14:27:04;;;;;;;9.50;1.20;;;16.00;99.90;;;;;;6312706;22;20015;-80
2022/10/08 14:29:31;;;;;;;5.05;0.90;;;16.00;99.90;;;;;;6340042;22;20010;-77
2022/10/08 14:31:57;;;;;;;4.32;0.90;;;16.00;99.90;;;;;;6313172;22;20022;-77
2022/10/08 14:34:23;;;;;;;5.40;1.30;;;16.00;99.90;;;;;;6311419;22;20317;-79
2022/10/08 14:36:50;;;;;;;7.18;1.10;;;16.00;99.90;;;;;;6311485;22;20075;-80
2022/10/08 14:39:16;;;;;;;6.38;0.98;;;15.90;99.90;;;;;;6340498;22;20082;-81
2022/10/08 14:41:43;;;;;;;8.43;1.30;;;16.00;99.90;;;;;;6287732;22;20045;-77
2022/10/08 14:44:09;;;;;;;6.10;1.00;;;16.00;99.90;;;;;;6338865;22;20379;-82
2022/10/08 14:46:34;;;;;;;6.03;0.85;;;16.10;99.90;;;;;;6312279;22;20011;-79
2022/10/08 14:49:01;;;;;;;7.93;1.13;;;16.00;99.90;;;;;;6339882;22;20085;-81
2022/10/08 14:51:30;;;;;;;4.05;0.93;;;16.10;99.90;;;;;;6339881;22;20046;-78
2022/10/08 14:53:59;;;;;;;3.63;1.08;;;16.20;99.90;;;;;;6340246;22;20007;-74
2022/10/08 14:56:24;;;;;;;6.57;1.13;;;16.30;99.90;;;;;;6340485;22;20014;-77
2022/10/08 14:58:50;;;;;;;5.60;1.13;;;16.10;99.90;;;;;;6340283;22;20011;-77
2022/10/08 15:01:16;;;;;;;3.80;0.85;;;16.00;99.90;;;;;;6312268;22;20444;-77
2022/10/08 15:03:44;;;;;;;8.48;1.60;;;15.90;99.90;;;;;;6312274;22;20018;-77
2022/10/08 15:06:12;;;;;;;7.10;1.45;;;15.80;99.90;;;;;;6338594;22;20332;-78
2022/10/08 15:08:39;;;;;;;8.73;1.08;;;15.80;99.90;;;;;;6311830;22;20363;-81
2022/10/08 15:11:05;;;;;;;6.78;0.93;;;15.90;99.90;;;;;;6337426;22;20007;-77
2022/10/08 15:13:30;;;;;;;6.13;0.95;;;15.90;99.90;;;;;;6285322;22;20045;-79
2022/10/08 15:15:56;;;;;;;8.65;0.95;;;16.00;99.90;;;;;;6311145;22;20011;-75
2022/10/08 15:18:22;;;;;;;12.30;1.45;;;15.90;99.90;;;;;;6285849;22;20010;-76
2022/10/08 15:20:56;;;;;;;4.72;0.70;;;15.70;99.90;;;;;;6311559;22;20466;-76
2022/10/08 15:23:23;;;;;;;4.05;1.00;;;15.60;99.90;;;;;;6339744;22;20007;-79
2022/10/08 15:26:00;;;;;;;8.43;1.13;;;15.50;99.90;;;;;;6312182;22;20007;-74
2022/10/08 15:28:29;;;;;;;4.43;0.90;;;15.40;99.90;;;;;;6340136;22;20003;-78
2022/10/08 15:31:15;;;;;;;4.22;0.80;;;15.20;99.90;;;;;;6312310;22;20515;-76
2022/10/08 15:33:43;;;;;;;9.52;1.63;;;15.10;99.90;;;;;;6312404;22;20087;-77
2022/10/08 15:36:38;;;;;;;4.10;0.88;;;15.00;99.90;;;;;;6341567;22;20006;-77
2022/10/08 15:39:06;;;;;;;10.20;1.35;;;15.00;99.90;;;;;;6259634;22;20145;-75
2022/10/08 15:41:37;;;;;;;6.43;0.85;;;15.00;99.90;;;;;;6286551;22;20018;-73
2022/10/08 15:44:09;;;;;;;8.68;1.70;;;14.80;99.90;;;;;;6340233;22;20029;-74
2022/10/08 15:46:35;;;;;;;5.07;1.00;;;14.70;99.90;;;;;;6339603;22;20377;-76
2022/10/08 15:49:01;;;;;;;12.40;1.38;;;14.50;99.90;;;;;;6312622;22;20433;-77
2022/10/08 15:51:28;;;;;;;4.30;1.00;;;14.50;99.90;;;;;;6312335;22;20015;-77
2022/10/08 15:53:54;;;;;;;9.13;2.70;;;14.40;99.90;;;;;;6312512;22;20425;-79
2022/10/08 15:56:19;;;;;;;9.82;2.00;;;14.40;99.90;;;;;;6313180;22;20072;-74
2022/10/08 15:58:45;;;;;;;10.05;1.40;;;14.40;99.90;;;;;;6339588;22;20038;-76
2022/10/08 16:01:14;;;;;;;5.88;1.10;;;14.40;99.90;;;;;;6286475;22;20011;-78
2022/10/08 16:03:43;;;;;;;4.75;1.02;;;14.30;99.90;;;;;;6340561;22;20324;-78
2022/10/08 16:06:11;;;;;;;8.90;2.05;;;14.30;99.90;;;;;;6311909;22;20013;-76
2022/10/08 16:08:38;;;;;;;8.15;1.35;;;14.30;99.90;;;;;;6340242;22;20013;-76
2022/10/08 16:11:18;;;;;;;10.07;0.93;;;14.30;99.90;;;;;;6339786;22;20377;-73
2022/10/08 16:13:47;;;;;;;9.30;2.05;;;14.20;99.90;;;;;;6311882;22;20110;-77
2022/10/08 16:16:15;;;;;;;7.85;1.23;;;14.10;99.90;;;;;;6311832;22;20011;-76
2022/10/08 16:18:42;;;;;;;5.72;1.00;;;14.10;99.90;;;;;;6339676;22;20018;-78
2022/10/08 16:21:08;;;;;;;5.45;1.10;;;14.00;99.90;;;;;;6339887;22;20010;-78
2022/10/08 16:23:36;;;;;;;9.27;1.10;;;13.90;99.90;;;;;;6311964;22;20015;-75
2022/10/08 16:26:12;;;;;;;7.13;1.13;;;13.80;99.90;;;;;;6311678;22;20310;-80
2022/10/08 16:28:39;;;;;;;9.43;1.42;;;13.80;99.90;;;;;;6311845;22;20014;-76
2022/10/08 16:31:06;;;;;;;12.18;1.60;;;13.80;99.90;;;;;;6311923;22;20014;-80
2022/10/08 16:33:33;;;;;;;7.93;1.58;;;13.70;99.90;;;;;;6339641;22;20089;-76
2022/10/08 16:36:07;;;;;;;7.47;1.02;;;13.70;99.90;;;;;;6339607;22;20018;-73
2022/10/08 16:38:34;;;;;;;9.93;1.57;;;13.70;99.90;;;;;;6311828;22;20010;-75
2022/10/08 16:41:20;;;;;;;12.38;2.30;;;13.60;99.90;;;;;;6339615;22;20007;-77
2022/10/08 16:43:48;;;;;;;;;;;13.50;99.90;;;;;;6313377;22;20011;-75
2022/10/08 16:46:20;;;;;;;9.13;1.55;;;13.40;99.90;;;;;;6339200;22;19910;-76
2022/10/08 16:48:50;;;;;;;5.50;1.60;;;13.30;99.90;;;;;;6285858;22;20436;-79
2022/10/08 16:51:16;;;;;;;7.45;1.75;;;13.30;99.90;;;;;;6311573;22;20095;-75
2022/10/08 16:53:47;;;;;;;13.32;1.88;;;13.30;99.90;;;;;;6311732;22;20397;-79
2022/10/08 16:56:12;;;;;;;4.55;1.23;;;13.20;99.90;;;;;;6311617;22;20021;-75
2022/10/08 16:58:38;;;;;;;7.03;1.58;;;13.10;99.90;;;;;;6311248;22;20014;-79
2022/10/08 17:01:06;;;;;;;8.35;1.67;;;13.10;99.90;;;;;;6311241;22;20057;-78
2022/10/08 17:03:31;;;;;;;11.73;2.80;;;13.10;99.90;;;;;;6285638;22;20018;-79
2022/10/08 17:05:57;;;;;;;13.18;2.05;;;13.00;99.90;;;;;;6311484;22;20011;-77
2022/10/08 17:08:23;;;;;;;13.43;2.63;;;13.00;99.90;;;;;;6339436;22;20029;-77